Time;durP1;ratioP1;P1;durP2;ratioP2;P2;SDS_P1;SDS_P2;PMS_P1;PMS_P2;Temp;Humidity;BMP_temperature;BMP_pressure;BME280_temperature;BME280_humidity;BME280_pressure;Samples;Min_cycle;Max_cycle;Signal;HPM_P1;HPM_P2
2023/07/01 00:03:57;;;;;;;11.32;10.23;;;25.90;63.60;;;;;;4797030;54;21529;-37
2023/07/01 00:08:58;;;;;;;11.85;10.05;;;25.90;63.60;;;;;;4826651;54;21209;-36
2023/07/01 00:13:59;;;;;;;11.77;10.65;;;25.90;63.60;;;;;;4913489;54;21023;-35
2023/07/01 00:19:00;;;;;;;10.85;9.85;;;25.90;63.70;;;;;;4796429;58;21042;-36
2023/07/01 00:24:01;;;;;;;10.93;9.93;;;25.90;63.60;;;;;;4827657;54;21071;-37
2023/07/01 00:29:02;;;;;;;11.43;10.20;;;25.90;63.60;;;;;;4796553;58;21007;-36
2023/07/01 00:34:03;;;;;;;11.32;10.23;;;25.90;63.70;;;;;;4848360;54;21584;-34
2023/07/01 00:39:06;;;;;;;10.38;9.40;;;25.90;63.60;;;;;;4856911;54;21086;-35
2023/07/01 00:44:07;;;;;;;10.95;9.93;;;25.90;63.60;;;;;;4799741;54;21457;-35
2023/07/01 00:49:07;;;;;;;11.57;10.38;;;25.90;63.70;;;;;;5080875;54;21058;-36
2023/07/01 00:54:08;;;;;;;11.45;10.25;;;25.90;63.70;;;;;;4796494;58;21110;-38
2023/07/01 00:59:09;;;;;;;10.90;9.85;;;25.90;63.60;;;;;;4797097;58;21085;-35
2023/07/01 01:05:13;;;;;;;10.77;9.70;;;25.90;63.70;;;;;;4849703;54;21039;-36
2023/07/01 01:10:19;;;;;;;10.35;9.35;;;25.90;63.60;;;;;;4859794;54;21079;-35
2023/07/01 01:15:20;;;;;;;11.05;9.80;;;25.90;63.60;;;;;;4825457;54;20975;-36
2023/07/01 01:20:22;;;;;;;10.68;9.70;;;25.90;63.70;;;;;;4796854;58;20999;-35
2023/07/01 01:25:57;;;;;;;11.35;10.25;;;25.90;63.70;;;;;;4796552;58;21537;-36
2023/07/01 01:30:58;;;;;;;10.32;9.32;;;25.90;63.60;;;;;;4931319;54;21497;-36
2023/07/01 01:37:06;;;;;;;11.95;9.73;;;25.90;63.60;;;;;;4850967;54;21571;-38
2023/07/01 01:42:23;;;;;;;10.35;9.45;;;25.90;63.70;;;;;;4797781;54;21505;-36
2023/07/01 01:47:29;;;;;;;11.25;10.15;;;25.90;63.60;;;;;;4824234;54;21379;-34
2023/07/01 01:52:31;;;;;;;9.50;8.60;;;25.90;63.60;;;;;;4795990;58;21090;-34
2023/07/01 01:57:32;;;;;;;10.15;9.25;;;25.90;63.60;;;;;;4860422;54;21015;-36
2023/07/01 02:02:33;;;;;;;9.63;8.73;;;25.90;63.70;;;;;;4910303;54;21087;-36
2023/07/01 02:07:34;;;;;;;9.80;8.90;;;25.90;63.60;;;;;;4817268;54;21540;-37
2023/07/01 02:12:35;;;;;;;10.63;9.63;;;25.90;63.70;;;;;;4807676;54;21082;-37
2023/07/01 02:17:36;;;;;;;9.93;8.93;;;25.90;63.70;;;;;;4856768;54;21067;-37
2023/07/01 02:22:37;;;;;;;10.40;9.35;;;25.90;63.60;;;;;;4852253;54;21074;-37
2023/07/01 02:27:37;;;;;;;9.73;8.80;;;25.90;63.70;;;;;;4862125;54;21627;-37
2023/07/01 02:32:38;;;;;;;9.63;8.73;;;25.90;63.70;;;;;;4801842;54;20999;-37
2023/07/01 02:37:39;;;;;;;9.20;8.40;;;25.90;63.60;;;;;;4881703;54;21062;-36
2023/07/01 02:42:40;;;;;;;9.82;8.82;;;25.90;63.60;;;;;;4886615;54;21031;-35
2023/07/01 02:47:41;;;;;;;10.57;9.55;;;25.90;63.60;;;;;;4804142;54;21461;-36
2023/07/01 02:52:41;;;;;;;9.77;8.85;;;25.90;63.60;;;;;;4858288;54;21011;-38
2023/07/01 02:57:42;;;;;;;10.10;9.20;;;25.90;63.60;;;;;;5019538;54;21022;-37
2023/07/01 03:02:43;;;;;;;10.55;9.57;;;25.90;63.60;;;;;;4832585;54;21074;-37
2023/07/01 03:07:44;;;;;;;9.77;8.85;;;25.90;63.70;;;;;;4834878;54;21011;-37
2023/07/01 03:12:45;;;;;;;9.80;8.90;;;25.90;63.60;;;;;;5054340;54;21694;-38
2023/07/01 03:17:47;;;;;;;9.88;8.88;;;25.90;63.60;;;;;;4810777;54;21059;-36
2023/07/01 03:22:49;;;;;;;9.45;8.55;;;25.90;63.60;;;;;;4850396;54;21466;-37
2023/07/01 03:27:50;;;;;;;10.52;9.52;;;25.90;63.60;;;;;;4828554;54;21007;-34
2023/07/01 03:32:51;;;;;;;9.30;8.40;;;25.90;63.50;;;;;;4937715;54;21533;-38
2023/07/01 03:37:52;;;;;;;9.60;8.70;;;25.90;63.60;;;;;;4905204;54;21015;-38
2023/07/01 03:42:52;;;;;;;9.80;8.85;;;25.90;63.50;;;;;;4846036;54;20999;-37
2023/07/01 03:47:53;;;;;;;9.75;8.85;;;25.90;63.50;;;;;;4809846;54;21106;-37
2023/07/01 03:52:54;;;;;;;9.70;8.70;;;25.90;63.50;;;;;;4840295;54;21010;-37
2023/07/01 03:57:55;;;;;;;9.45;8.55;;;25.80;63.40;;;;;;4834367;54;20987;-38
2023/07/01 04:03:02;;;;;;;9.30;8.32;;;25.80;63.40;;;;;;4804538;53;20995;-37
2023/07/01 04:08:03;;;;;;;9.10;8.27;;;25.80;63.40;;;;;;4796237;58;21454;-37
2023/07/01 04:13:04;;;;;;;10.20;9.20;;;25.80;63.40;;;;;;4972622;54;21079;-34
2023/07/01 04:18:05;;;;;;;9.77;8.77;;;25.80;63.30;;;;;;4855484;54;21532;-37
2023/07/01 04:23:06;;;;;;;9.50;8.60;;;25.80;63.30;;;;;;4796459;58;21074;-38
2023/07/01 04:28:08;;;;;;;10.23;9.18;;;25.80;63.20;;;;;;4835824;54;21015;-37
2023/07/01 04:33:09;;;;;;;9.77;8.88;;;25.80;63.20;;;;;;4847870;54;21540;-36
2023/07/01 04:38:09;;;;;;;10.00;9.02;;;25.80;63.20;;;;;;4796475;55;21015;-37
2023/07/01 04:43:10;;;;;;;9.73;8.82;;;25.80;63.20;;;;;;4827109;54;21564;-36
2023/07/01 04:48:11;;;;;;;10.30;8.88;;;25.80;63.20;;;;;;5043959;54;20991;-37
2023/07/01 04:53:12;;;;;;;10.82;9.73;;;25.80;63.20;;;;;;4796724;55;21045;-36
2023/07/01 04:58:13;;;;;;;11.40;9.88;;;25.80;63.20;;;;;;4834667;54;21003;-35
2023/07/01 05:03:14;;;;;;;10.50;9.57;;;25.80;63.20;;;;;;4818674;54;21014;-36
2023/07/01 05:08:14;;;;;;;9.65;8.75;;;25.80;63.20;;;;;;4852728;54;21022;-34
2023/07/01 05:13:15;;;;;;;10.63;9.52;;;25.80;63.20;;;;;;4838069;54;21004;-36
2023/07/01 05:18:16;;;;;;;10.38;9.38;;;25.80;63.20;;;;;;4796293;58;21300;-37
2023/07/01 05:23:17;;;;;;;10.02;9.02;;;25.80;63.20;;;;;;4913827;54;21015;-36
2023/07/01 05:28:18;;;;;;;10.65;9.55;;;25.80;63.10;;;;;;4796691;58;21027;-35
2023/07/01 05:33:19;;;;;;;10.43;9.43;;;25.80;63.20;;;;;;4871389;54;21556;-37
2023/07/01 05:38:20;;;;;;;10.60;9.50;;;25.80;63.10;;;;;;4796318;58;21082;-37
2023/07/01 05:43:20;;;;;;;10.27;9.32;;;25.80;63.00;;;;;;4820558;54;21035;-37
2023/07/01 05:48:21;;;;;;;11.15;9.60;;;25.80;63.00;;;;;;4871792;54;21023;-38
2023/07/01 05:53:22;;;;;;;10.50;9.50;;;25.80;63.40;;;;;;4856980;53;21507;-38
2023/07/01 05:58:23;;;;;;;10.88;9.73;;;25.80;63.10;;;;;;4796276;58;21000;-38
2023/07/01 06:03:24;;;;;;;10.30;9.30;;;25.80;63.10;;;;;;4876486;54;21518;-36
2023/07/01 06:08:25;;;;;;;9.80;8.82;;;25.80;63.10;;;;;;4796679;58;21034;-37
2023/07/01 06:13:26;;;;;;;10.82;9.82;;;25.80;63.10;;;;;;4891285;53;21541;-37
2023/07/01 06:18:27;;;;;;;11.12;10.10;;;25.80;63.10;;;;;;4856848;54;21110;-40
2023/07/01 06:23:28;;;;;;;10.52;9.52;;;25.80;63.20;;;;;;4796524;58;20999;-37
2023/07/01 06:28:28;;;;;;;10.13;9.23;;;25.80;63.10;;;;;;4882023;54;21059;-36
2023/07/01 06:33:29;;;;;;;11.05;9.90;;;25.80;63.10;;;;;;4834047;54;21161;-40
2023/07/01 06:38:30;;;;;;;10.77;9.40;;;25.80;63.10;;;;;;4831471;54;21378;-36
2023/07/01 06:43:31;;;;;;;10.35;9.38;;;25.80;63.10;;;;;;4827948;54;21011;-38
2023/07/01 06:48:32;;;;;;;10.90;9.85;;;25.80;63.10;;;;;;4839788;54;20997;-36
2023/07/01 06:53:33;;;;;;;9.80;8.93;;;25.80;63.10;;;;;;4822284;54;21476;-37
2023/07/01 06:58:34;;;;;;;11.45;9.95;;;25.80;63.10;;;;;;4796216;58;21003;-36
2023/07/01 07:03:39;;;;;;;11.82;10.40;;;25.80;63.10;;;;;;4817027;54;21006;-40
2023/07/01 07:08:40;;;;;;;10.95;9.85;;;25.80;63.10;;;;;;4805875;54;21473;-39
2023/07/01 07:13:40;;;;;;;11.90;10.70;;;25.80;63.10;;;;;;4796018;56;21015;-37
2023/07/01 07:18:41;;;;;;;11.07;9.98;;;25.80;63.10;;;;;;4947541;54;20995;-38
2023/07/01 07:23:42;;;;;;;10.60;9.60;;;25.80;63.10;;;;;;4841812;54;21112;-37
2023/07/01 07:28:43;;;;;;;10.75;9.65;;;25.80;63.20;;;;;;4930602;54;21030;-37
2023/07/01 07:33:44;;;;;;;11.35;10.18;;;25.80;63.10;;;;;;4795720;58;21023;-37
2023/07/01 07:38:45;;;;;;;11.43;10.23;;;25.80;63.70;;;;;;4796490;58;21003;-39
2023/07/01 07:43:45;;;;;;;11.00;9.90;;;25.80;63.10;;;;;;4909257;53;21047;-38
2023/07/01 07:48:47;;;;;;;10.77;9.77;;;25.80;63.10;;;;;;4866895;54;21449;-38
2023/07/01 07:53:48;;;;;;;10.55;9.55;;;25.80;63.10;;;;;;4801638;54;21054;-37
2023/07/01 07:58:49;;;;;;;11.45;10.35;;;25.80;63.20;;;;;;4802876;54;21559;-37
2023/07/01 08:03:50;;;;;;;11.23;10.23;;;25.80;63.20;;;;;;4828785;54;20991;-36
2023/07/01 08:08:51;;;;;;;10.90;9.80;;;25.80;63.90;;;;;;4810412;54;21023;-39
2023/07/01 08:13:51;;;;;;;11.32;10.20;;;25.90;63.20;;;;;;4796247;55;21078;-37
2023/07/01 08:18:52;;;;;;;11.20;10.10;;;25.90;63.20;;;;;;4796376;58;21023;-39
2023/07/01 08:23:53;;;;;;;11.52;10.32;;;25.90;63.90;;;;;;4857888;54;20983;-38
2023/07/01 08:28:54;;;;;;;11.30;10.20;;;25.90;63.20;;;;;;4924936;54;21011;-35
2023/07/01 08:33:55;;;;;;;11.80;10.55;;;25.90;63.20;;;;;;4841169;54;21126;-39
2023/07/01 08:38:55;;;;;;;10.80;9.70;;;25.90;63.20;;;;;;4821730;54;21003;-37
2023/07/01 08:43:57;;;;;;;11.63;10.07;;;25.90;63.20;;;;;;4806663;54;21168;-38
2023/07/01 08:48:58;;;;;;;11.85;10.65;;;25.90;63.20;;;;;;4821218;54;21035;-38
2023/07/01 08:54:00;;;;;;;11.23;10.23;;;25.90;63.30;;;;;;4838122;54;21458;-38
2023/07/01 08:59:02;;;;;;;11.75;10.50;;;25.90;63.20;;;;;;4845274;54;21529;-38
2023/07/01 09:04:03;;;;;;;12.02;10.63;;;25.90;63.30;;;;;;4803567;54;21038;-40
2023/07/01 09:09:04;;;;;;;11.25;10.15;;;25.90;63.20;;;;;;4836343;54;21486;-37
2023/07/01 09:14:05;;;;;;;11.60;10.50;;;25.90;63.20;;;;;;4795955;58;21074;-37
2023/07/01 09:19:07;;;;;;;11.43;10.23;;;25.90;63.20;;;;;;4798139;54;21071;-36
2023/07/01 09:24:10;;;;;;;11.07;9.98;;;25.90;63.30;;;;;;4800796;54;21059;-38
2023/07/01 09:29:19;;;;;;;10.88;9.77;;;25.90;63.20;;;;;;4796143;54;21098;-38
2023/07/01 09:34:21;;;;;;;11.25;10.15;;;25.90;63.30;;;;;;4809174;54;21672;-39
2023/07/01 09:39:32;;;;;;;11.55;10.27;;;25.90;63.30;;;;;;4814562;54;21075;-37
2023/07/01 09:44:34;;;;;;;11.00;9.95;;;25.90;63.80;;;;;;4870720;54;21437;-39
2023/07/01 09:49:42;;;;;;;11.52;10.32;;;25.90;63.30;;;;;;4920822;54;21015;-38
2023/07/01 09:54:44;;;;;;;10.23;9.23;;;25.90;63.40;;;;;;4807649;54;21041;-39
2023/07/01 09:59:45;;;;;;;10.57;9.57;;;25.90;63.30;;;;;;4796714;54;21062;-38
2023/07/01 10:04:46;;;;;;;11.23;10.13;;;26.00;63.40;;;;;;4860880;54;21023;-37
2023/07/01 10:09:47;;;;;;;11.45;10.25;;;25.90;63.50;;;;;;4798869;54;21114;-38
2023/07/01 10:14:53;;;;;;;10.75;9.68;;;25.90;63.40;;;;;;4804977;54;21041;-38
2023/07/01 10:19:54;;;;;;;10.75;9.75;;;25.90;63.30;;;;;;4829121;54;21078;-39
2023/07/01 10:25:05;;;;;;;12.32;11.12;;;26.00;63.40;;;;;;4797757;54;21533;-35
2023/07/01 10:30:13;;;;;;;10.70;9.70;;;26.00;63.50;;;;;;4795890;58;21542;-38
2023/07/01 10:35:15;;;;;;;11.35;10.27;;;26.00;63.50;;;;;;4795861;55;21170;-37
2023/07/01 10:41:49;;;;;;;11.40;10.38;;;26.00;63.60;;;;;;4836218;54;21514;-36
2023/07/01 10:47:13;;;;;;;10.82;9.73;;;26.00;63.50;;;;;;4796202;58;21006;-38
2023/07/01 10:52:14;;;;;;;11.10;10.00;;;26.00;63.50;;;;;;4795747;58;21509;-36
2023/07/01 10:57:18;;;;;;;10.93;9.93;;;26.00;64.10;;;;;;4796053;58;21105;-37
2023/07/01 11:02:37;;;;;;;12.10;10.90;;;26.00;63.50;;;;;;4820063;54;21461;-39
2023/07/01 11:07:41;;;;;;;11.90;10.70;;;26.00;63.50;;;;;;4824346;54;21607;-39
2023/07/01 11:12:42;;;;;;;11.27;10.18;;;26.00;63.50;;;;;;4978124;53;21481;-38
2023/07/01 11:17:54;;;;;;;12.45;11.23;;;26.00;63.50;;;;;;4839682;54;21011;-37
2023/07/01 11:22:55;;;;;;;11.60;10.40;;;26.00;63.50;;;;;;4838506;54;21422;-38
2023/07/01 11:27:56;;;;;;;12.90;11.60;;;26.00;63.40;;;;;;4861509;54;21015;-35
2023/07/01 11:33:11;;;;;;;12.37;11.18;;;26.00;63.40;;;;;;4796031;54;21034;-39
2023/07/01 11:38:29;;;;;;;11.90;10.77;;;26.00;63.50;;;;;;4797107;58;21889;-37
2023/07/01 11:43:30;;;;;;;11.10;10.07;;;26.00;63.40;;;;;;4883030;54;21548;-40
2023/07/01 11:48:32;;;;;;;12.65;11.45;;;26.00;63.40;;;;;;4805424;54;21541;-38
2023/07/01 11:53:41;;;;;;;12.48;11.27;;;26.00;63.40;;;;;;4857788;53;21006;-37
2023/07/01 11:58:48;;;;;;;13.88;11.68;;;26.00;63.40;;;;;;4861787;54;21058;-35
2023/07/01 12:03:49;;;;;;;12.65;11.35;;;26.00;63.40;;;;;;4797763;54;21054;-39
2023/07/01 12:08:55;;;;;;;11.93;10.82;;;26.00;63.50;;;;;;4890001;54;21365;-38
2023/07/01 12:13:56;;;;;;;12.63;11.40;;;26.00;63.40;;;;;;4836537;54;20995;-39
2023/07/01 12:19:02;;;;;;;12.05;10.85;;;26.00;63.40;;;;;;4983800;54;21011;-36
2023/07/01 12:24:15;;;;;;;12.03;10.80;;;26.00;63.40;;;;;;4802293;54;21446;-39
2023/07/01 12:29:16;;;;;;;12.95;11.45;;;26.00;63.40;;;;;;4800255;54;20999;-39
2023/07/01 12:34:17;;;;;;;14.27;11.85;;;26.00;63.40;;;;;;4808799;54;21027;-38
2023/07/01 12:39:17;;;;;;;13.75;12.35;;;26.00;63.40;;;;;;4810130;54;21083;-37
2023/07/01 12:44:18;;;;;;;12.65;11.40;;;26.00;63.50;;;;;;4849185;54;21106;-37
2023/07/01 12:49:19;;;;;;;12.90;11.57;;;26.00;63.50;;;;;;4810990;54;21473;-39
2023/07/01 12:54:21;;;;;;;13.25;11.98;;;26.00;63.50;;;;;;4895566;53;21114;-38
2023/07/01 12:59:22;;;;;;;13.13;11.68;;;26.00;63.50;;;;;;4796745;54;21401;-39
2023/07/01 13:04:23;;;;;;;13.25;11.85;;;26.00;63.50;;;;;;4870979;53;21493;-37
2023/07/01 13:09:43;;;;;;;12.80;11.40;;;26.00;63.50;;;;;;4881283;54;21070;-39
2023/07/01 13:14:44;;;;;;;12.70;11.40;;;26.00;63.50;;;;;;4868969;53;21518;-38
2023/07/01 13:19:45;;;;;;;13.40;11.75;;;26.00;63.60;;;;;;4875559;54;20995;-35
2023/07/01 13:24:46;;;;;;;13.10;11.80;;;26.00;63.50;;;;;;4837919;54;21043;-38
2023/07/01 13:29:46;;;;;;;13.02;11.73;;;26.00;63.50;;;;;;4870594;54;21015;-39
2023/07/01 13:34:47;;;;;;;13.43;12.13;;;26.00;63.50;;;;;;4808504;54;21114;-36
2023/07/01 13:39:50;;;;;;;12.60;11.40;;;26.00;63.50;;;;;;4796634;58;20999;-37
2023/07/01 13:44:53;;;;;;;14.10;12.70;;;26.00;63.50;;;;;;4823090;54;21110;-38
2023/07/01 13:49:54;;;;;;;12.88;11.55;;;26.00;63.50;;;;;;4910584;54;21118;-37
2023/07/01 13:54:54;;;;;;;12.02;10.82;;;26.00;63.50;;;;;;4889091;54;21099;-37
2023/07/01 13:59:56;;;;;;;12.88;11.27;;;26.00;63.50;;;;;;4825334;54;21114;-39
2023/07/01 14:04:57;;;;;;;12.45;11.25;;;26.00;63.50;;;;;;4872994;54;21050;-39
2023/07/01 14:09:58;;;;;;;13.45;12.05;;;26.00;63.50;;;;;;4814233;54;21086;-38
2023/07/01 14:15:05;;;;;;;13.27;11.93;;;26.00;63.50;;;;;;4810293;54;21381;-38
2023/07/01 14:20:06;;;;;;;;;;;26.00;63.60;;;;;;4799513;58;21070;-38
2023/07/01 14:25:07;;;;;;;12.70;11.50;;;26.00;64.10;;;;;;4863576;54;20076;-37
2023/07/01 14:30:14;;;;;;;13.00;11.68;;;26.00;63.60;;;;;;4795893;58;21492;-38
2023/07/01 14:35:19;;;;;;;12.63;11.32;;;26.00;63.60;;;;;;4996008;53;21047;-37
2023/07/01 14:40:20;;;;;;;13.07;11.85;;;26.00;63.60;;;;;;4848177;54;21472;-38
2023/07/01 14:45:21;;;;;;;13.13;11.77;;;26.00;63.60;;;;;;4811914;53;21154;-36
2023/07/01 14:50:21;;;;;;;12.55;11.35;;;26.00;63.60;;;;;;4804908;54;21011;-37
2023/07/01 14:55:22;;;;;;;12.90;11.55;;;26.00;63.60;;;;;;4894273;54;21569;-37
2023/07/01 15:00:23;;;;;;;12.25;11.02;;;26.00;63.60;;;;;;4865621;54;21480;-36
2023/07/01 15:05:24;;;;;;;13.52;10.80;;;26.00;63.60;;;;;;4821783;54;21561;-37
2023/07/01 15:10:25;;;;;;;12.73;11.52;;;26.00;63.70;;;;;;4891950;54;21142;-37
2023/07/01 15:15:25;;;;;;;12.40;11.10;;;26.00;63.60;;;;;;4898280;54;21074;-38
2023/07/01 15:20:26;;;;;;;12.32;11.23;;;26.00;63.70;;;;;;4819075;54;21043;-37
2023/07/01 15:25:27;;;;;;;12.30;11.02;;;26.00;63.60;;;;;;4832843;54;21067;-35
2023/07/01 15:30:28;;;;;;;13.30;12.00;;;26.00;63.60;;;;;;4867653;54;21014;-39
2023/07/01 15:35:29;;;;;;;12.35;10.90;;;26.00;63.60;;;;;;4878672;54;21103;-39
2023/07/01 15:40:30;;;;;;;12.60;11.30;;;26.00;63.60;;;;;;4814933;54;21037;-37
2023/07/01 15:45:31;;;;;;;12.32;11.15;;;26.00;63.60;;;;;;4841507;54;21608;-36
2023/07/01 15:50:32;;;;;;;12.70;11.50;;;26.00;63.60;;;;;;4795679;58;21011;-37
2023/07/01 15:55:33;;;;;;;12.25;11.10;;;26.00;63.60;;;;;;4814729;54;21509;-38
2023/07/01 16:00:34;;;;;;;12.48;11.25;;;26.00;63.60;;;;;;4797848;54;21118;-38
2023/07/01 16:05:36;;;;;;;11.05;9.95;;;26.00;63.60;;;;;;4796631;58;21509;-38
2023/07/01 16:10:37;;;;;;;11.75;10.65;;;26.00;63.60;;;;;;4831805;54;21054;-35
2023/07/01 16:17:30;;;;;;;11.50;10.30;;;26.00;63.60;;;;;;4903794;54;21470;-39
2023/07/01 16:22:31;;;;;;;12.43;11.23;;;26.00;63.60;;;;;;4831254;54;20999;-39
2023/07/01 16:27:32;;;;;;;11.90;10.80;;;26.00;63.60;;;;;;4877567;54;20999;-39
2023/07/01 16:32:33;;;;;;;12.13;10.90;;;26.00;63.60;;;;;;4999918;54;21082;-35
2023/07/01 16:37:34;;;;;;;11.90;10.80;;;26.00;63.60;;;;;;4796598;55;20987;-37
2023/07/01 16:42:36;;;;;;;11.68;10.50;;;26.00;63.60;;;;;;4807091;54;21027;-39
2023/07/01 16:47:37;;;;;;;11.20;10.20;;;26.10;63.70;;;;;;4796743;58;21449;-36
2023/07/01 16:52:38;;;;;;;12.20;11.00;;;26.10;63.70;;;;;;4849475;54;21069;-37
2023/07/01 16:57:39;;;;;;;11.68;10.50;;;26.00;63.60;;;;;;4831130;54;21312;-37
2023/07/01 17:03:13;;;;;;;12.15;10.95;;;26.00;63.60;;;;;;4812110;54;21532;-37
2023/07/01 17:08:22;;;;;;;12.00;10.45;;;26.10;63.70;;;;;;4976248;53;21378;-38
2023/07/01 17:13:31;;;;;;;12.10;11.00;;;26.10;63.70;;;;;;4842061;54;21078;-37
2023/07/01 17:18:33;;;;;;;11.77;10.68;;;26.10;63.70;;;;;;4830271;53;21081;-39
2023/07/01 17:23:34;;;;;;;11.57;10.48;;;26.10;63.70;;;;;;4810887;54;20995;-37
2023/07/01 17:28:37;;;;;;;11.68;10.57;;;26.10;63.70;;;;;;4796122;58;21324;-37
2023/07/01 17:33:38;;;;;;;12.18;10.98;;;26.10;63.70;;;;;;4835867;54;21582;-37
2023/07/01 17:38:38;;;;;;;11.48;10.48;;;26.10;63.70;;;;;;4816857;54;21462;-38
2023/07/01 17:43:39;;;;;;;11.52;10.43;;;26.00;63.60;;;;;;4886690;54;21071;-37
2023/07/01 17:48:40;;;;;;;12.20;11.00;;;26.10;63.40;;;;;;4843058;54;21094;-37
2023/07/01 17:53:41;;;;;;;12.25;11.12;;;26.10;63.70;;;;;;4843649;54;21127;-37
2023/07/01 17:58:42;;;;;;;11.73;10.50;;;26.10;63.80;;;;;;4858213;54;21551;-38
2023/07/01 18:03:42;;;;;;;10.85;9.85;;;26.10;63.70;;;;;;4907972;54;21058;-37
2023/07/01 18:08:43;;;;;;;11.93;10.13;;;26.10;63.70;;;;;;4906694;53;21485;-39
2023/07/01 18:13:44;;;;;;;11.82;10.63;;;26.10;63.70;;;;;;4849196;54;21077;-39
2023/07/01 18:18:45;;;;;;;11.57;10.48;;;26.10;63.70;;;;;;4844847;54;21645;-39
2023/07/01 18:23:46;;;;;;;11.82;10.63;;;26.10;63.70;;;;;;4904028;54;21018;-45
2023/07/01 18:28:47;;;;;;;10.88;9.88;;;26.10;63.80;;;;;;4837990;54;21031;-37
2023/07/01 18:33:48;;;;;;;12.40;11.15;;;26.10;63.70;;;;;;4998209;54;21039;-36
2023/07/01 18:38:49;;;;;;;11.05;9.95;;;26.10;63.80;;;;;;4843251;54;21490;-38
2023/07/01 18:43:51;;;;;;;11.15;10.13;;;26.10;63.70;;;;;;4853092;54;21019;-38
2023/07/01 18:48:52;;;;;;;11.30;10.20;;;26.10;63.80;;;;;;4818689;54;21015;-36
2023/07/01 18:53:53;;;;;;;11.15;10.13;;;26.10;63.80;;;;;;4961730;54;21536;-36
2023/07/01 18:58:54;;;;;;;11.32;10.27;;;26.10;63.90;;;;;;4836071;54;21018;-37
2023/07/01 19:03:54;;;;;;;11.38;10.27;;;26.10;63.80;;;;;;4862438;54;20995;-38
2023/07/01 19:08:55;;;;;;;10.68;9.77;;;26.10;63.80;;;;;;4871000;54;20995;-37
2023/07/01 19:13:56;;;;;;;11.10;10.00;;;26.10;63.80;;;;;;4812979;54;21103;-37
2023/07/01 19:18:57;;;;;;;11.40;10.27;;;26.10;63.90;;;;;;4828455;54;21018;-38
2023/07/01 19:23:58;;;;;;;11.77;10.60;;;26.10;63.90;;;;;;4821541;54;21098;-37
2023/07/01 19:28:59;;;;;;;11.10;10.00;;;26.10;64.70;;;;;;4848031;54;21034;-38
2023/07/01 19:34:02;;;;;;;11.48;10.38;;;26.00;63.80;;;;;;4796090;58;21027;-38
2023/07/01 19:39:03;;;;;;;10.68;9.68;;;26.10;63.90;;;;;;4844085;54;21003;-36
2023/07/01 19:44:05;;;;;;;11.35;10.25;;;26.10;64.00;;;;;;4955479;54;21458;-34
2023/07/01 19:49:06;;;;;;;11.35;10.25;;;26.00;63.90;;;;;;4796470;58;21508;-39
2023/07/01 19:54:07;;;;;;;11.18;10.07;;;26.10;64.00;;;;;;4924353;54;21035;-37
2023/07/01 19:59:08;;;;;;;11.18;10.18;;;26.10;64.00;;;;;;4797082;58;21015;-35
2023/07/01 20:04:08;;;;;;;10.68;9.68;;;26.10;64.00;;;;;;4848424;54;21035;-33
2023/07/01 20:09:09;;;;;;;11.60;10.50;;;26.10;64.10;;;;;;4824965;54;21023;-36
2023/07/01 20:14:10;;;;;;;11.60;10.40;;;26.00;64.10;;;;;;4862566;54;21066;-34
2023/07/01 20:19:11;;;;;;;11.80;10.70;;;26.00;64.00;;;;;;4796715;58;21082;-37
2023/07/01 20:24:12;;;;;;;12.00;10.80;;;26.00;64.00;;;;;;5010310;53;21003;-35
2023/07/01 20:29:14;;;;;;;11.88;10.77;;;26.00;64.10;;;;;;4804750;54;21588;-35
2023/07/01 20:34:15;;;;;;;11.55;10.45;;;26.00;64.00;;;;;;4795629;58;21585;-38
2023/07/01 20:39:16;;;;;;;11.15;10.05;;;26.00;64.10;;;;;;4863128;54;21445;-38
2023/07/01 20:44:18;;;;;;;11.75;10.55;;;26.00;64.10;;;;;;4801709;54;21078;-36
2023/07/01 20:49:20;;;;;;;11.12;10.13;;;26.00;64.10;;;;;;4895222;54;21580;-36
2023/07/01 20:54:20;;;;;;;10.60;9.60;;;26.00;64.00;;;;;;4809821;54;21154;-38
2023/07/01 20:59:21;;;;;;;12.07;10.95;;;26.00;64.00;;;;;;4940954;54;21648;-36
2023/07/01 21:04:22;;;;;;;11.23;10.13;;;26.00;64.00;;;;;;4841516;54;21015;-38
2023/07/01 21:09:23;;;;;;;11.07;9.88;;;26.00;64.00;;;;;;4965571;54;21592;-38
2023/07/01 21:14:25;;;;;;;11.02;10.02;;;26.00;64.00;;;;;;4798247;54;20995;-32
2023/07/01 21:19:26;;;;;;;11.30;10.20;;;26.00;64.00;;;;;;4815261;54;21473;-37
2023/07/01 21:24:27;;;;;;;10.30;9.30;;;26.00;64.00;;;;;;4796461;58;22100;-36
2023/07/01 21:29:28;;;;;;;10.95;9.85;;;26.00;63.90;;;;;;4858574;53;21506;-37
2023/07/01 21:34:30;;;;;;;10.55;9.55;;;26.00;63.90;;;;;;5002530;54;21966;-35
2023/07/01 21:39:31;;;;;;;10.13;9.13;;;26.00;63.90;;;;;;4813626;54;21930;-36
2023/07/01 21:44:32;;;;;;;10.60;9.60;;;26.00;63.90;;;;;;4820591;54;21142;-35
2023/07/01 21:49:34;;;;;;;10.70;9.60;;;26.00;63.90;;;;;;4796413;58;21094;-34
2023/07/01 21:54:35;;;;;;;10.05;9.00;;;26.00;63.90;;;;;;4832029;54;20987;-39
2023/07/01 21:59:37;;;;;;;10.70;9.70;;;26.00;63.80;;;;;;4819113;54;21580;-34
2023/07/01 22:04:37;;;;;;;10.50;9.50;;;26.00;63.80;;;;;;4922420;53;21082;-37
2023/07/01 22:09:38;;;;;;;10.70;9.70;;;26.00;63.80;;;;;;4829286;54;21146;-37
2023/07/01 22:14:39;;;;;;;10.00;9.00;;;26.00;63.80;;;;;;4852350;54;21166;-37
2023/07/01 22:19:40;;;;;;;10.02;9.10;;;26.00;63.80;;;;;;4917994;54;21027;-37
2023/07/01 22:24:41;;;;;;;10.00;9.10;;;26.00;63.80;;;;;;4862637;54;21526;-37
2023/07/01 22:29:41;;;;;;;11.12;9.40;;;26.00;63.80;;;;;;4817519;53;21039;-37
2023/07/01 22:34:43;;;;;;;10.73;9.63;;;26.00;63.80;;;;;;4892233;54;21067;-38
2023/07/01 22:39:43;;;;;;;9.55;8.65;;;26.00;63.80;;;;;;4806476;54;21437;-39
2023/07/01 22:44:44;;;;;;;10.00;9.00;;;26.00;63.80;;;;;;4815002;54;21015;-36
2023/07/01 22:49:45;;;;;;;9.90;8.90;;;26.00;63.80;;;;;;4923317;54;21925;-38
2023/07/01 22:54:46;;;;;;;9.68;8.77;;;26.00;63.80;;;;;;4889337;53;20999;-38
2023/07/01 22:59:47;;;;;;;9.43;8.52;;;26.00;63.80;;;;;;4884378;54;21019;-38
2023/07/01 23:04:50;;;;;;;10.02;9.02;;;26.00;63.80;;;;;;4887208;54;21015;-37
2023/07/01 23:09:51;;;;;;;10.18;9.18;;;26.00;63.80;;;;;;4811772;54;21512;-40
2023/07/01 23:14:51;;;;;;;9.48;8.57;;;26.00;63.80;;;;;;4909250;54;21014;-37
2023/07/01 23:19:53;;;;;;;9.27;8.40;;;26.00;63.80;;;;;;4796690;55;21082;-39
2023/07/01 23:24:57;;;;;;;9.85;8.85;;;26.00;63.80;;;;;;4945822;54;21608;-38
2023/07/01 23:29:58;;;;;;;9.90;8.90;;;26.00;63.80;;;;;;4795970;58;21515;-37
2023/07/01 23:34:59;;;;;;;9.00;8.10;;;26.00;63.80;;;;;;4862978;54;21019;-35
2023/07/01 23:40:00;;;;;;;10.23;9.23;;;26.00;63.80;;;;;;4796559;58;21094;-38
2023/07/01 23:45:01;;;;;;;9.30;8.45;;;26.00;63.90;;;;;;4914080;54;21066;-38
2023/07/01 23:50:03;;;;;;;8.93;8.13;;;26.00;63.90;;;;;;4863835;54;21122;-37
2023/07/01 23:55:05;;;;;;;9.27;8.38;;;26.00;63.90;;;;;;4821228;54;21493;-37
